Time;durP1;ratioP1;P1;durP2;ratioP2;P2;SDS_P1;SDS_P2;PMS_P1;PMS_P2;Temp;Humidity;BMP_temperature;BMP_pressure;BME280_temperature;BME280_humidity;BME280_pressure;Samples;Min_cycle;Max_cycle;Signal;HPM_P1;HPM_P2
2020/12/05 00:01:03;;;;;;;48.95;21.83;;;;;;;1.05;87.29;96392.41;4952365;29;20024;-68
2020/12/05 00:03:29;;;;;;;49.60;22.88;;;;;;;0.96;87.30;96395.97;4935729;29;20024;-68
2020/12/05 00:05:54;;;;;;;35.88;20.77;;;;;;;0.90;87.56;96392.69;4937569;29;20051;-68
2020/12/05 00:08:19;;;;;;;40.70;22.20;;;;;;;0.81;88.70;96393.69;4937283;29;20027;-68
2020/12/05 00:10:45;;;;;;;42.47;21.77;;;;;;;0.83;87.95;96388.59;4937566;29;20189;-67
2020/12/05 00:13:10;;;;;;;44.97;22.15;;;;;;;0.83;88.21;96388.59;4936985;29;20377;-68
2020/12/05 00:15:35;;;;;;;40.47;21.48;;;;;;;0.73;88.42;96373.47;4937264;29;20066;-69
2020/12/05 00:18:00;;;;;;;47.65;23.85;;;;;;;0.70;89.08;96378.63;4936994;29;20631;-70
2020/12/05 00:20:26;;;;;;;49.28;24.35;;;;;;;0.71;89.10;96375.19;4937024;29;20118;-68
2020/12/05 00:22:51;;;;;;;45.35;24.63;;;;;;;0.83;88.43;96409.00;4937031;29;20051;-67
2020/12/05 00:25:16;;;;;;;49.58;23.23;;;;;;;1.18;88.00;96416.81;4937026;29;20095;-69
2020/12/05 00:27:42;;;;;;;45.08;24.20;;;;;;;1.31;86.90;96411.47;4936857;29;20428;-69
2020/12/05 00:30:07;;;;;;;50.78;24.48;;;;;;;1.33;86.28;96394.44;4935671;29;20442;-69
2020/12/05 00:32:32;;;;;;;50.15;24.50;;;;;;;0.87;88.07;96377.44;4936865;29;20389;-68
2020/12/05 00:34:58;;;;;;;46.25;23.58;;;;;;;1.16;87.69;96380.31;4936725;29;20556;-67
2020/12/05 00:37:28;;;;;;;43.22;23.80;;;;;;;1.19;86.75;96390.44;4936808;29;20050;-67
2020/12/05 00:39:53;;;;;;;46.03;24.08;;;;;;;1.37;86.48;96386.69;4936896;29;20524;-67
2020/12/05 00:42:18;;;;;;;56.00;24.85;;;;;;;1.10;87.06;96372.75;4936785;29;20032;-67
2020/12/05 00:44:44;;;;;;;48.88;24.88;;;;;;;1.19;86.87;96351.34;4936560;29;20548;-68
2020/12/05 00:47:09;;;;;;;51.45;24.25;;;;;;;1.12;87.35;96339.59;4936715;29;20028;-67
2020/12/05 00:49:34;;;;;;;44.42;24.73;;;;;;;1.32;86.70;96331.53;4936545;29;20019;-67
2020/12/05 00:51:59;;;;;;;47.78;23.90;;;;;;;1.32;85.95;96331.53;4936584;29;20028;-67
2020/12/05 00:54:25;;;;;;;52.13;25.40;;;;;;;1.20;86.92;96340.25;4936455;29;20035;-67
2020/12/05 00:56:52;;;;;;;51.00;24.85;;;;;;;1.37;86.49;96334.81;4936406;29;20034;-68
2020/12/05 00:59:17;;;;;;;45.97;24.67;;;;;;;1.55;87.38;96329.34;4935227;29;20031;-68
2020/12/05 08:02:35;;;;;;;49.35;26.15;;;;;;;0.83;95.92;97149.03;5010604;23;20155;-69
2020/12/05 08:05:07;;;;;;;50.10;25.20;;;;;;;0.86;95.70;97148.13;4914920;29;20048;-69
2020/12/05 08:07:37;;;;;;;44.20;24.17;;;;;;;0.93;95.67;97150.66;4916006;29;20024;-69
2020/12/05 08:10:15;;;;;;;45.92;24.60;;;;;;;1.03;95.21;97148.88;4918480;29;20035;-69
2020/12/05 08:12:43;;;;;;;42.40;21.50;;;;;;;1.24;95.07;97151.28;4899337;29;20116;-67
2020/12/05 08:15:10;;;;;;;42.83;24.08;;;;;;;1.28;94.56;97165.72;4947048;23;20040;-67
2020/12/05 08:17:37;;;;;;;49.10;25.13;;;;;;;1.11;94.46;97177.72;4917856;29;20051;-67
2020/12/05 08:20:03;;;;;;;50.53;23.13;;;;;;;0.91;95.17;97177.00;4932715;29;20095;-67
2020/12/05 08:22:30;;;;;;;52.67;24.30;;;;;;;0.99;95.13;97175.25;4918061;29;20031;-67
2020/12/05 08:24:57;;;;;;;53.17;25.38;;;;;;;0.92;95.31;97174.47;4918059;29;20052;-66
2020/12/05 08:27:24;;;;;;;49.13;25.45;;;;;;;0.99;95.51;97170.16;4918074;29;20028;-67
2020/12/05 08:29:50;;;;;;;50.72;26.50;;;;;;;1.07;95.13;97177.78;4917890;29;20035;-68
2020/12/05 08:32:23;;;;;;;50.78;27.05;;;;;;;1.02;94.66;97195.66;4918175;29;20028;-68
2020/12/05 08:34:49;;;;;;;51.58;26.95;;;;;;;1.04;95.45;97193.94;4918098;29;20027;-67
2020/12/05 08:37:25;;;;;;;56.78;25.65;;;;;;;1.10;94.98;97193.88;4917920;29;20482;-68
2020/12/05 08:39:52;;;;;;;52.72;26.17;;;;;;;1.10;94.91;97203.25;4917604;29;20059;-68
2020/12/05 08:42:17;;;;;;;39.70;23.52;;;;;;;1.04;95.24;97191.38;4917980;29;20032;-68
2020/12/05 08:44:43;;;;;;;48.83;25.13;;;;;;;1.12;95.06;97201.53;4917443;29;20039;-68
2020/12/05 08:47:08;;;;;;;47.15;23.08;;;;;;;1.14;94.68;97208.31;4892019;28;20050;-67
2020/12/05 08:49:39;;;;;;;53.20;25.02;;;;;;;1.15;94.99;97207.44;4904566;28;20020;-68
2020/12/05 08:52:05;;;;;;;51.40;26.20;;;;;;;1.11;94.71;97213.41;4929547;29;20362;-67
2020/12/05 08:54:31;;;;;;;52.15;24.13;;;;;;;1.17;95.50;97210.84;4894896;28;20032;-72
2020/12/05 08:57:07;;;;;;;48.53;25.70;;;;;;;1.06;95.12;97217.69;4930514;29;20024;-67
2020/12/05 08:59:32;;;;;;;48.35;26.27;;;;;;;1.02;95.27;97232.19;4895022;28;20069;-68
2020/12/05 09:01:58;;;;;;;46.55;25.85;;;;;;;1.16;95.63;97237.22;4916176;29;20445;-67
2020/12/05 09:04:32;;;;;;;56.33;28.15;;;;;;;1.18;95.24;97250.81;4893569;28;20091;-68
2020/12/05 09:07:07;;;;;;;49.05;24.85;;;;;;;1.13;94.96;97262.75;4930355;29;20519;-68
2020/12/05 09:09:33;;;;;;;49.10;25.98;;;;;;;1.13;95.17;97254.25;4894772;28;20035;-68
2020/12/05 09:12:18;;;;;;;50.67;26.77;;;;;;;1.27;95.55;97248.19;4930080;29;20036;-67
2020/12/05 09:14:47;;;;;;;44.15;23.65;;;;;;;1.21;95.35;97250.78;4895609;28;20146;-67
2020/12/05 09:17:23;;;;;;;39.70;22.42;;;;;;;1.35;94.97;97244.75;4928211;29;20084;-69
2020/12/05 09:19:50;;;;;;;46.70;22.70;;;;;;;1.40;94.36;97248.09;4895724;28;20082;-69
2020/12/05 09:22:32;;;;;;;40.20;23.42;;;;;;;1.25;94.93;97255.00;4928012;29;20040;-69
2020/12/05 09:24:58;;;;;;;52.10;23.48;;;;;;;1.25;95.19;97249.91;4897749;28;20066;-69
2020/12/05 09:27:37;;;;;;;41.08;22.27;;;;;;;1.32;95.08;97249.88;4927208;29;20133;-69
2020/12/05 09:30:10;;;;;;;49.28;24.63;;;;;;;1.36;95.13;97246.47;4893422;28;20397;-69
2020/12/05 09:32:47;;;;;;;45.38;22.48;;;;;;;1.40;94.55;97243.00;4916941;29;20109;-69
2020/12/05 09:35:15;;;;;;;39.95;21.55;;;;;;;1.41;94.69;97244.72;4899052;28;20465;-69
2020/12/05 09:37:41;;;;;;;37.85;22.60;;;;;;;1.43;94.64;97232.78;4924885;29;20030;-69
2020/12/05 09:40:08;;;;;;;39.53;21.63;;;;;;;1.54;94.72;97236.09;4898048;28;20051;-69
2020/12/05 09:42:34;;;;;;;35.63;20.88;;;;;;;1.60;94.46;97236.09;4925764;29;20027;-69
2020/12/05 09:44:59;;;;;;;39.75;21.83;;;;;;;1.64;94.50;97237.72;4892762;28;20036;-69
2020/12/05 09:47:25;;;;;;;36.35;21.52;;;;;;;1.55;94.34;97253.13;4916839;29;20047;-69
2020/12/05 09:49:50;;;;;;;33.30;20.90;;;;;;;1.70;94.20;97258.13;4895795;28;20542;-69
2020/12/05 09:52:15;;;;;;;32.97;20.00;;;;;;;1.67;94.00;97263.25;4928004;29;20706;-69
2020/12/05 09:54:41;;;;;;;30.95;19.15;;;;;;;1.66;93.83;97269.22;4894404;28;20475;-69
2020/12/05 09:57:07;;;;;;;38.13;19.88;;;;;;;1.62;94.24;97277.75;4928887;29;20049;-69
2020/12/05 09:59:33;;;;;;;34.28;20.17;;;;;;;1.50;94.43;97276.13;4893333;28;20492;-69
2020/12/05 10:02:03;;;;;;;34.20;20.15;;;;;;;1.60;94.36;97270.97;4929854;29;20103;-69
2020/12/05 10:04:28;;;;;;;29.23;19.42;;;;;;;1.69;94.41;97261.53;4892670;28;20545;-69
2020/12/05 10:06:53;;;;;;;38.15;22.15;;;;;;;1.71;93.92;97259.81;4930122;29;20033;-69
2020/12/05 10:09:18;;;;;;;39.20;24.05;;;;;;;1.86;94.32;97252.88;4916456;29;20020;-69
2020/12/05 10:11:44;;;;;;;35.17;21.17;;;;;;;1.91;94.22;97252.00;4906756;28;20043;-69
2020/12/05 10:14:09;;;;;;;38.92;22.73;;;;;;;1.92;94.04;97247.72;4915948;29;20020;-69
2020/12/05 10:16:34;;;;;;;38.60;24.20;;;;;;;1.96;93.77;97249.41;4892416;28;20043;-69
2020/12/05 10:19:01;;;;;;;38.63;23.80;;;;;;;2.12;93.72;97248.38;4916079;29;20486;-69
2020/12/05 10:21:27;;;;;;;34.15;20.58;;;;;;;1.73;93.67;97252.97;4906278;28;20051;-69
2020/12/05 10:23:52;;;;;;;31.38;20.05;;;;;;;1.81;94.19;97250.38;4916183;29;20032;-69
2020/12/05 10:26:17;;;;;;;31.33;19.00;;;;;;;1.87;94.08;97254.56;4890108;29;20039;-69
2020/12/05 10:28:43;;;;;;;30.83;18.35;;;;;;;1.87;94.42;97262.25;4915874;29;20175;-69
2020/12/05 10:31:08;;;;;;;32.10;20.52;;;;;;;1.82;94.25;97271.66;4904161;28;20516;-69
2020/12/05 10:33:33;;;;;;;31.48;19.77;;;;;;;1.85;94.14;97286.94;4917848;29;20039;-69
2020/12/05 10:35:59;;;;;;;34.55;19.80;;;;;;;1.82;94.55;97286.97;4889935;29;20032;-69
2020/12/05 10:38:24;;;;;;;30.90;20.33;;;;;;;1.88;94.29;97281.81;4915373;29;20124;-69
2020/12/05 10:40:49;;;;;;;32.67;20.33;;;;;;;1.91;94.01;97276.69;4901602;28;20051;-69
2020/12/05 10:43:15;;;;;;;36.38;21.83;;;;;;;1.94;94.23;97292.84;4919798;29;20119;-69
2020/12/05 10:45:40;;;;;;;34.60;20.58;;;;;;;1.93;94.55;97310.69;4900258;28;20122;-69
2020/12/05 10:48:05;;;;;;;39.40;24.45;;;;;;;1.88;94.80;97308.19;4920938;29;20032;-69
2020/12/05 10:50:30;;;;;;;32.80;20.10;;;;;;;1.79;94.24;97303.16;4899404;28;20047;-67
2020/12/05 10:52:56;;;;;;;32.58;20.38;;;;;;;1.87;94.89;97298.00;4921941;29;20039;-68
2020/12/05 10:55:21;;;;;;;32.75;20.08;;;;;;;1.79;94.96;97318.50;4891911;28;20044;-68
2020/12/05 10:57:46;;;;;;;37.42;21.33;;;;;;;1.82;95.16;97317.59;4915310;29;20032;-68
2020/12/05 11:00:12;;;;;;;40.50;22.55;;;;;;;1.90;94.65;97313.31;4896509;28;20075;-68
2020/12/05 11:02:37;;;;;;;41.28;23.27;;;;;;;1.86;94.74;97298.84;4924093;29;20032;-68
2020/12/05 11:05:02;;;;;;;33.40;21.85;;;;;;;1.87;94.60;97292.88;4895293;28;20043;-68
2020/12/05 11:07:27;;;;;;;38.58;22.35;;;;;;;1.96;94.42;97285.16;4925303;29;20119;-67
2020/12/05 11:09:53;;;;;;;35.15;21.63;;;;;;;2.00;94.72;97287.66;4893983;28;20047;-67
2020/12/05 11:12:18;;;;;;;36.55;22.52;;;;;;;1.97;94.70;97302.16;4926399;29;20031;-67
2020/12/05 11:14:43;;;;;;;37.25;23.27;;;;;;;1.87;94.61;97305.66;4892518;28;20486;-68
2020/12/05 11:17:09;;;;;;;37.85;20.08;;;;;;;1.96;94.56;97311.53;4927710;29;20032;-67
2020/12/05 11:19:34;;;;;;;29.80;21.23;;;;;;;1.95;94.61;97298.78;4891471;28;20040;-68
2020/12/05 11:21:59;;;;;;;39.95;22.52;;;;;;;1.95;94.64;97283.47;4928859;29;20073;-67
2020/12/05 11:24:24;;;;;;;36.50;20.92;;;;;;;2.03;94.51;97277.44;4914850;29;20102;-69
2020/12/05 11:26:50;;;;;;;34.10;22.15;;;;;;;2.02;94.22;97280.81;4905457;28;20501;-69
2020/12/05 11:29:15;;;;;;;39.80;21.73;;;;;;;2.10;94.50;97283.34;4915127;29;20035;-69
2020/12/05 11:31:40;;;;;;;36.70;22.80;;;;;;;2.08;94.40;97274.84;4891168;28;20051;-69
2020/12/05 11:34:06;;;;;;;37.00;21.90;;;;;;;2.13;94.35;97277.31;4914592;29;20042;-69
2020/12/05 11:36:31;;;;;;;36.40;23.05;;;;;;;2.15;94.22;97276.47;4905466;28;20095;-69
2020/12/05 11:38:56;;;;;;;38.25;23.50;;;;;;;2.12;94.54;97281.59;4914591;29;20115;-69
2020/12/05 11:41:22;;;;;;;38.88;21.70;;;;;;;2.10;94.06;97278.22;4903971;28;20126;-69
2020/12/05 11:43:47;;;;;;;37.00;21.70;;;;;;;2.11;94.24;97279.91;4915049;29;20028;-69
2020/12/05 11:46:13;;;;;;;32.63;21.55;;;;;;;2.10;94.53;97283.34;4903026;28;20050;-69
2020/12/05 11:48:38;;;;;;;34.60;21.92;;;;;;;2.15;94.44;97283.28;4916703;29;20470;-69
2020/12/05 11:51:03;;;;;;;29.67;19.63;;;;;;;2.17;94.17;97284.97;4891091;28;20050;-69
2020/12/05 11:53:29;;;;;;;31.23;19.02;;;;;;;2.23;94.10;97279.81;4914491;29;20028;-69
2020/12/05 11:55:54;;;;;;;27.45;18.75;;;;;;;2.19;94.23;97279.84;4900502;28;20065;-69
2020/12/05 11:58:19;;;;;;;32.53;19.73;;;;;;;2.23;94.36;97295.16;4918997;29;20079;-68
2020/12/05 12:00:45;;;;;;;32.58;18.33;;;;;;;2.22;93.72;97303.66;4898894;28;20048;-69
2020/12/05 12:03:11;;;;;;;24.52;16.83;;;;;;;2.12;94.19;97314.81;4919663;29;20044;-68
2020/12/05 12:05:36;;;;;;;26.88;17.75;;;;;;;2.16;94.55;97302.88;4898376;28;20054;-67
2020/12/05 12:08:01;;;;;;;28.73;18.52;;;;;;;2.22;94.37;97293.41;4921469;29;20039;-68
2020/12/05 12:10:26;;;;;;;28.77;18.92;;;;;;;2.30;94.06;97293.38;4897300;28;20062;-68
2020/12/05 12:12:52;;;;;;;28.58;18.63;;;;;;;2.22;93.89;97301.09;4922579;29;20028;-68
2020/12/05 12:15:17;;;;;;;34.20;18.80;;;;;;;2.28;94.05;97298.50;4895620;28;20052;-68
2020/12/05 12:17:43;;;;;;;29.02;20.05;;;;;;;2.25;94.17;97293.41;4923836;29;20099;-68
2020/12/05 12:20:08;;;;;;;32.08;19.77;;;;;;;2.31;94.34;97301.00;4894379;28;20276;-68
2020/12/05 12:22:34;;;;;;;33.95;19.00;;;;;;;2.49;93.97;97301.72;4924662;29;20045;-68
2020/12/05 12:24:59;;;;;;;34.03;19.67;;;;;;;2.51;93.55;97299.97;4887914;28;20050;-71
2020/12/05 12:27:24;;;;;;;32.85;20.50;;;;;;;2.53;93.36;97294.00;4921277;29;20035;-71
2020/12/05 12:29:49;;;;;;;29.02;19.50;;;;;;;2.66;93.53;97284.50;4891459;29;20055;-71
2020/12/05 12:32:15;;;;;;;29.40;18.50;;;;;;;2.80;93.07;97282.63;4922044;29;20037;-73
2020/12/05 12:34:40;;;;;;;26.30;16.98;;;;;;;2.76;92.48;97280.97;4890456;28;20028;-71
2020/12/05 12:37:05;;;;;;;28.73;19.05;;;;;;;2.62;92.90;97282.84;4924962;29;20084;-72
2020/12/05 12:39:31;;;;;;;26.92;17.23;;;;;;;2.67;93.33;97270.00;4914065;29;20039;-68
2020/12/05 12:41:56;;;;;;;27.77;17.65;;;;;;;2.72;93.10;97263.97;4893926;28;20052;-68
2020/12/05 12:44:21;;;;;;;40.55;21.75;;;;;;;2.69;92.85;97269.09;4902941;29;20077;-68
2020/12/05 12:48:00;;;;;;;30.60;20.15;;;;;;;2.67;93.35;97268.28;4902431;29;20477;-68
2020/12/05 12:49:41;;;;;;;32.75;20.27;;;;;;;2.76;93.03;97255.41;4878222;29;20037;-69
2020/12/05 12:52:07;;;;;;;32.80;19.58;;;;;;;2.68;93.13;97264.00;4923747;29;20079;-68
2020/12/05 12:54:34;;;;;;;28.08;18.30;;;;;;;2.73;93.21;97270.75;4914664;29;20441;-68
2020/12/05 12:56:59;;;;;;;32.28;18.38;;;;;;;2.77;93.10;97275.00;4904510;28;20489;-68
2020/12/05 12:59:25;;;;;;;30.85;19.23;;;;;;;2.82;92.83;97280.91;4917471;29;20036;-68
2020/12/05 13:01:52;;;;;;;25.55;15.55;;;;;;;2.90;92.15;97285.06;4896579;28;20540;-68
2020/12/05 13:04:17;;;;;;;19.50;13.15;;;;;;;2.92;90.99;97280.78;4917026;29;20032;-68
2020/12/05 13:06:43;;;;;;;15.50;11.25;;;;;;;3.05;90.11;97279.78;4892937;29;20043;-69
2020/12/05 13:09:08;;;;;;;24.42;15.15;;;;;;;3.16;90.38;97285.59;4917404;29;20087;-69
2020/12/05 13:11:33;;;;;;;28.70;17.20;;;;;;;3.28;90.62;97280.31;4906688;29;20046;-68
2020/12/05 13:13:58;;;;;;;22.17;13.60;;;;;;;3.18;89.83;97277.91;4912863;29;20032;-68
2020/12/05 13:16:24;;;;;;;20.58;13.25;;;;;;;3.25;90.08;97267.56;4904073;28;20571;-68
2020/12/05 13:18:49;;;;;;;17.55;12.05;;;;;;;3.18;88.34;97265.09;4916609;29;20035;-68
2020/12/05 13:21:21;;;;;;;15.55;11.27;;;;;;;3.19;88.56;97270.22;4896347;28;20046;-68
2020/12/05 13:23:49;;;;;;;15.45;10.88;;;;;;;3.06;87.76;97273.78;4916620;29;20097;-68
2020/12/05 13:26:21;;;;;;;17.05;12.32;;;;;;;3.07;89.10;97276.31;4903892;29;20603;-68
2020/12/05 13:28:47;;;;;;;17.60;11.55;;;;;;;3.18;88.42;97278.75;4906654;29;20040;-68
2020/12/05 13:31:13;;;;;;;18.17;12.23;;;;;;;3.15;88.76;97278.81;4892654;29;20040;-68
2020/12/05 13:33:38;;;;;;;14.13;10.43;;;;;;;3.26;87.70;97271.81;4916441;29;20056;-68
2020/12/05 13:36:06;;;;;;;14.43;11.02;;;;;;;3.17;87.62;97265.97;4902781;28;20545;-68
2020/12/05 13:38:31;;;;;;;16.70;11.63;;;;;;;3.09;88.22;97269.50;4916921;29;20475;-73
2020/12/05 13:40:57;;;;;;;16.63;11.02;;;;;;;3.12;88.33;97278.81;4895729;28;20051;-73
2020/12/05 13:43:22;;;;;;;18.30;11.75;;;;;;;3.18;88.15;97276.19;4916166;29;20526;-73
2020/12/05 13:45:47;;;;;;;16.00;10.98;;;;;;;3.11;88.19;97274.59;4892395;29;20051;-73
2020/12/05 13:48:12;;;;;;;18.52;12.63;;;;;;;3.15;88.11;97272.84;4916277;29;20386;-73
2020/12/05 13:50:38;;;;;;;15.50;10.77;;;;;;;3.04;87.20;97265.28;4898663;29;20035;-73
2020/12/05 13:53:03;;;;;;;16.77;11.70;;;;;;;3.09;87.36;97258.38;4919862;29;20032;-73
2020/12/05 13:55:28;;;;;;;13.18;9.98;;;;;;;3.02;86.91;97261.91;4892542;28;20056;-73
2020/12/05 13:57:54;;;;;;;16.58;11.77;;;;;;;3.00;87.35;97259.38;4916259;29;20156;-73
2020/12/05 14:00:19;;;;;;;15.35;11.55;;;;;;;3.06;88.07;97269.53;4895598;28;20043;-73
2020/12/05 14:02:44;;;;;;;17.75;12.25;;;;;;;3.01;87.35;97270.44;4915266;29;20032;-73
2020/12/05 14:05:10;;;;;;;16.70;11.48;;;;;;;3.08;87.16;97264.38;4891608;29;20051;-73
2020/12/05 14:07:35;;;;;;;16.33;12.18;;;;;;;2.99;87.26;97255.09;4915974;29;20035;-73
2020/12/05 14:10:00;;;;;;;14.82;11.10;;;;;;;2.99;87.25;97261.94;4893748;29;20052;-72
2020/12/05 14:12:26;;;;;;;17.20;11.57;;;;;;;2.97;87.17;97279.03;4924324;29;20081;-73
2020/12/05 14:14:52;;;;;;;17.58;11.77;;;;;;;2.93;87.50;97278.19;4893117;28;20495;-73
2020/12/05 14:17:17;;;;;;;19.67;11.70;;;;;;;2.97;87.39;97289.25;4925072;29;20039;-74
2020/12/05 14:19:42;;;;;;;17.30;12.15;;;;;;;3.00;87.31;97299.47;4910166;28;20032;-72
2020/12/05 14:22:08;;;;;;;16.67;11.13;;;;;;;2.95;87.09;97308.88;4900367;29;20048;-73
2020/12/05 14:24:33;;;;;;;16.10;11.38;;;;;;;2.99;86.69;97292.63;4914822;29;20024;-73
2020/12/05 14:27:00;;;;;;;16.55;10.75;;;;;;;2.97;86.96;97295.22;4889944;29;20102;-74
2020/12/05 14:29:25;;;;;;;15.93;10.70;;;;;;;2.93;87.12;97301.22;4915361;29;20060;-73
2020/12/05 14:31:54;;;;;;;19.15;11.77;;;;;;;2.99;87.38;97292.63;4904946;29;20126;-73
2020/12/05 14:34:21;;;;;;;19.52;12.45;;;;;;;3.04;87.83;97286.59;4913352;29;20156;-73
2020/12/05 14:36:46;;;;;;;18.98;11.95;;;;;;;2.95;87.92;97301.19;4901670;28;20040;-73
2020/12/05 14:39:11;;;;;;;17.67;12.60;;;;;;;2.92;87.59;97291.88;4915352;29;20091;-73
2020/12/05 14:41:37;;;;;;;18.17;11.75;;;;;;;2.91;87.79;97282.50;4893989;28;20148;-75
2020/12/05 14:44:02;;;;;;;18.33;10.95;;;;;;;2.81;88.14;97288.59;4915216;29;20028;-71
2020/12/05 14:46:28;;;;;;;17.15;10.70;;;;;;;2.84;88.38;97281.72;4903121;29;20047;-71
2020/12/05 14:48:53;;;;;;;16.65;10.55;;;;;;;2.84;87.65;97279.16;4897939;28;20520;-71
2020/12/05 14:51:18;;;;;;;22.55;11.77;;;;;;;2.82;87.80;97280.06;4903976;29;20053;-72
2020/12/05 14:53:44;;;;;;;15.32;10.80;;;;;;;2.87;87.89;97285.97;4914897;29;20028;-71
2020/12/05 14:56:12;;;;;;;17.48;12.20;;;;;;;2.86;87.65;97285.97;4900978;28;20075;-70
2020/12/05 14:58:37;;;;;;;18.15;11.27;;;;;;;2.91;88.04;97285.06;4899370;29;20076;-67
2020/12/05 15:01:03;;;;;;;16.38;10.48;;;;;;;2.88;88.59;97285.09;4899634;29;20036;-69
2020/12/05 15:03:28;;;;;;;15.10;10.77;;;;;;;2.90;88.98;97290.19;4917008;29;20040;-69
2020/12/05 15:05:53;;;;;;;17.05;11.90;;;;;;;2.83;88.29;97286.84;4898922;28;20071;-69
2020/12/05 15:08:19;;;;;;;19.80;12.93;;;;;;;2.81;89.05;97276.66;4916878;29;20545;-69
2020/12/05 15:10:44;;;;;;;22.33;13.63;;;;;;;2.76;89.40;97277.56;4893599;28;20044;-69
2020/12/05 15:13:10;;;;;;;30.20;17.85;;;;;;;2.74;89.72;97271.59;4914240;29;20035;-69
2020/12/05 15:15:35;;;;;;;43.63;26.88;;;;;;;2.67;90.28;97252.94;4896278;29;20052;-70
2020/12/05 15:18:00;;;;;;;32.97;21.83;;;;;;;2.64;90.81;97263.19;4913338;29;20024;-73
2020/12/05 15:20:26;;;;;;;26.13;16.38;;;;;;;2.57;91.06;97257.31;4893706;29;20521;-67
2020/12/05 15:22:51;;;;;;;23.27;15.85;;;;;;;2.58;91.61;97247.94;4921596;29;20164;-66
2020/12/05 15:25:17;;;;;;;23.70;15.50;;;;;;;2.52;91.62;97245.44;4894138;28;20066;-68
2020/12/05 15:27:42;;;;;;;35.08;19.10;;;;;;;2.52;91.73;97242.91;4920918;29;20434;-68
2020/12/05 15:30:08;;;;;;;35.92;19.95;;;;;;;2.49;92.21;97240.38;4892981;28;20051;-65
2020/12/05 15:32:34;;;;;;;32.42;19.65;;;;;;;2.61;91.95;97245.34;4914235;29;20594;-67
2020/12/05 15:34:59;;;;;;;33.03;18.60;;;;;;;2.52;92.59;97236.06;4891436;29;20060;-66
2020/12/05 15:37:25;;;;;;;39.05;20.58;;;;;;;2.61;93.51;97230.00;4923283;29;20032;-66
2020/12/05 15:39:51;;;;;;;36.58;20.02;;;;;;;2.63;93.45;97233.38;4893873;29;20051;-68
2020/12/05 15:42:17;;;;;;;29.65;18.38;;;;;;;2.69;92.63;97232.47;4921778;29;20079;-67
2020/12/05 15:44:42;;;;;;;27.30;17.10;;;;;;;2.62;92.05;97234.25;4914288;29;20452;-67
2020/12/05 15:47:08;;;;;;;27.23;16.98;;;;;;;2.56;91.90;97229.19;4890946;28;20111;-66
2020/12/05 15:49:34;;;;;;;26.65;16.23;;;;;;;2.60;91.78;97238.53;4914512;29;20024;-68
2020/12/05 15:52:00;;;;;;;26.10;16.42;;;;;;;2.50;91.85;97247.16;4892156;28;20047;-69
2020/12/05 15:54:25;;;;;;;25.35;15.98;;;;;;;2.52;91.58;97250.56;4914286;29;20441;-69
2020/12/05 15:56:51;;;;;;;27.15;17.27;;;;;;;2.51;91.74;97248.84;4896723;29;20102;-73
2020/12/05 15:59:16;;;;;;;28.58;18.38;;;;;;;2.44;92.00;97244.69;4896603;29;20044;-71
2020/12/05 16:01:42;;;;;;;29.70;18.30;;;;;;;2.42;92.73;97248.94;4882534;28;20086;-67
2020/12/05 16:04:08;;;;;;;32.78;19.35;;;;;;;2.45;92.54;97254.88;4903282;29;20032;-70
2020/12/05 16:06:34;;;;;;;33.78;20.25;;;;;;;2.47;92.59;97257.44;4889142;28;20047;-67
2020/12/05 16:09:01;;;;;;;29.88;17.95;;;;;;;2.30;92.62;97245.66;4900695;29;20032;-67
2020/12/05 16:11:34;;;;;;;29.90;19.35;;;;;;;2.21;93.32;97245.75;4869646;29;20576;-68
2020/12/05 16:13:59;;;;;;;32.13;19.95;;;;;;;2.16;93.49;97242.38;4897029;29;20345;-67
2020/12/05 16:16:26;;;;;;;31.90;19.30;;;;;;;2.18;93.70;97234.72;4882165;28;20074;-68
2020/12/05 16:18:51;;;;;;;30.83;17.85;;;;;;;2.14;93.80;97243.28;4896112;29;20035;-68
2020/12/05 16:21:19;;;;;;;29.95;18.90;;;;;;;2.07;94.04;97242.47;4879668;29;20036;-68
2020/12/05 16:23:45;;;;;;;34.28;19.45;;;;;;;2.04;94.50;97250.19;4900913;29;20127;-68
2020/12/05 16:26:12;;;;;;;31.92;20.90;;;;;;;2.03;94.41;97246.78;4877675;28;20127;-68
2020/12/05 16:28:37;;;;;;;35.80;21.17;;;;;;;2.07;94.12;97252.69;4906974;29;20017;-68
2020/12/05 16:31:02;;;;;;;33.13;19.98;;;;;;;2.04;94.56;97243.38;4886313;29;20498;-68
2020/12/05 16:33:27;;;;;;;28.67;19.02;;;;;;;2.03;94.19;97251.03;4905824;29;20046;-68
2020/12/05 16:35:53;;;;;;;28.33;18.02;;;;;;;2.01;94.37;97237.44;4889096;28;20044;-67
2020/12/05 16:38:20;;;;;;;31.50;18.95;;;;;;;1.99;94.38;97244.28;4925050;29;20028;-68
2020/12/05 16:40:45;;;;;;;31.20;19.67;;;;;;;1.99;94.61;97244.28;4893389;28;20048;-68
2020/12/05 16:43:11;;;;;;;34.53;19.77;;;;;;;2.06;94.40;97246.75;4916858;29;20496;-68
2020/12/05 16:45:36;;;;;;;35.45;18.40;;;;;;;2.11;94.32;97264.59;4893446;28;20058;-68
2020/12/05 16:48:01;;;;;;;33.65;19.95;;;;;;;2.02;94.68;97264.66;4913653;29;20031;-68
2020/12/05 16:50:27;;;;;;;30.77;18.70;;;;;;;2.04;94.41;97265.50;4896614;28;20035;-68
2020/12/05 16:52:52;;;;;;;30.92;19.55;;;;;;;2.02;94.45;97270.63;4914850;29;20028;-68
2020/12/05 16:55:17;;;;;;;34.65;18.85;;;;;;;2.00;94.41;97263.84;4891592;29;20108;-68
2020/12/05 16:57:42;;;;;;;31.15;18.45;;;;;;;2.16;94.04;97262.84;4915931;29;20103;-68
2020/12/05 17:00:08;;;;;;;42.88;21.70;;;;;;;2.16;93.96;97261.97;4889695;29;20487;-67
2020/12/05 17:02:33;;;;;;;39.95;22.13;;;;;;;2.15;93.84;97261.13;4917177;29;20028;-68
2020/12/05 17:04:58;;;;;;;35.00;21.92;;;;;;;2.08;94.38;97259.53;4878355;29;20024;-68
2020/12/05 17:07:24;;;;;;;33.33;20.40;;;;;;;2.08;94.66;97263.75;4913188;29;20056;-68
2020/12/05 17:09:49;;;;;;;34.72;20.15;;;;;;;2.04;94.84;97260.41;4912072;29;20136;-68
2020/12/05 17:12:14;;;;;;;30.95;18.85;;;;;;;2.02;95.21;97257.84;4896496;28;20401;-68
2020/12/05 17:14:40;;;;;;;33.55;19.95;;;;;;;2.04;95.04;97248.47;4916591;29;20067;-68
2020/12/05 17:17:05;;;;;;;38.00;20.92;;;;;;;2.02;94.94;97237.41;4874289;29;20051;-68
2020/12/05 17:19:30;;;;;;;37.08;20.75;;;;;;;2.00;95.17;97235.75;4909451;29;20595;-68
2020/12/05 17:21:56;;;;;;;38.13;19.05;;;;;;;2.03;95.36;97230.59;4885859;29;20052;-68
2020/12/05 17:24:24;;;;;;;30.00;18.63;;;;;;;2.03;95.15;97228.03;4899657;29;20032;-68
2020/12/05 17:26:49;;;;;;;30.27;18.40;;;;;;;1.99;95.26;97223.84;4880778;29;20068;-68
2020/12/05 17:29:15;;;;;;;33.97;19.63;;;;;;;1.95;95.49;97224.72;4904360;29;20024;-68
2020/12/05 17:31:40;;;;;;;35.83;20.95;;;;;;;1.94;95.75;97216.22;4878912;29;20052;-68
2020/12/05 17:34:05;;;;;;;34.20;20.35;;;;;;;1.94;96.02;97225.59;4904146;29;20438;-68
2020/12/05 17:36:31;;;;;;;36.22;22.50;;;;;;;1.94;96.22;97225.59;4887754;28;20395;-68
2020/12/05 17:38:56;;;;;;;39.97;22.80;;;;;;;1.90;96.73;97218.81;4909810;29;20036;-68
2020/12/05 17:41:21;;;;;;;34.83;21.58;;;;;;;1.88;96.58;97223.06;4891299;29;20042;-68
2020/12/05 17:43:47;;;;;;;48.33;24.70;;;;;;;1.87;96.58;97226.50;4909421;29;20032;-68
2020/12/05 17:46:12;;;;;;;50.85;25.63;;;;;;;1.88;96.63;97235.84;4888611;29;20039;-68
2020/12/05 17:48:38;;;;;;;56.38;29.35;;;;;;;1.86;96.83;97237.56;4906646;29;20028;-68
2020/12/05 17:51:03;;;;;;;45.22;25.27;;;;;;;1.84;96.77;97229.94;4883193;29;20517;-68
2020/12/05 17:53:28;;;;;;;51.53;24.48;;;;;;;1.85;96.86;97235.88;4905808;29;20092;-68
2020/12/05 17:55:53;;;;;;;45.13;24.63;;;;;;;1.79;97.04;97222.31;4887921;28;20051;-68
2020/12/05 17:58:19;;;;;;;43.45;24.88;;;;;;;1.78;97.05;97223.16;4913959;29;20032;-68
2020/12/05 18:00:44;;;;;;;40.97;24.90;;;;;;;1.74;97.17;97233.38;4888349;28;20044;-67
2020/12/05 18:03:09;;;;;;;45.08;24.25;;;;;;;1.78;96.84;97230.81;4902952;29;20060;-68
2020/12/05 18:05:35;;;;;;;44.63;23.90;;;;;;;1.79;96.91;97237.63;4876887;29;20047;-68
2020/12/05 18:08:00;;;;;;;38.80;22.17;;;;;;;1.79;96.67;97234.22;4913552;29;20028;-68
2020/12/05 18:10:25;;;;;;;36.72;22.88;;;;;;;1.81;96.77;97229.94;4879891;28;20040;-69
2020/12/05 18:12:51;;;;;;;46.10;22.60;;;;;;;1.79;96.84;97232.53;4908785;29;20036;-68
2020/12/05 18:15:16;;;;;;;37.55;21.73;;;;;;;1.82;96.67;97230.78;4883207;29;20404;-68
2020/12/05 18:17:42;;;;;;;40.85;22.20;;;;;;;1.88;96.44;97233.28;4907638;29;20119;-68
2020/12/05 18:20:08;;;;;;;41.95;22.80;;;;;;;1.83;96.47;97238.44;4872984;29;20024;-68